Time;durP1;ratioP1;P1;durP2;ratioP2;P2;SDS_P1;SDS_P2;PMS_P1;PMS_P2;Temp;Humidity;BMP_temperature;BMP_pressure;BME280_temperature;BME280_humidity;BME280_pressure;Samples;Min_cycle;Max_cycle;Signal;HPM_P1;HPM_P2
2022/09/28 00:00:07;;;;;;;5.93;3.35;;;7.30;10.60;;;;;;5055299;28;20367;-77
2022/09/28 00:02:34;;;;;;;4.55;3.47;;;7.30;19.10;;;;;;5054888;28;20033;-77
2022/09/28 00:05:00;;;;;;;4.57;3.50;;;7.30;22.60;;;;;;5055527;28;20041;-78
2022/09/28 00:07:26;;;;;;;5.55;3.72;;;7.30;34.30;;;;;;5055010;28;20029;-78
2022/09/28 00:09:52;;;;;;;5.97;3.47;;;7.30;39.60;;;;;;5054806;28;20513;-77
2022/09/28 00:12:17;;;;;;;6.40;3.88;;;7.30;45.50;;;;;;5048182;28;20061;-78
2022/09/28 00:14:44;;;;;;;5.30;3.50;;;7.30;56.90;;;;;;5048327;28;20368;-78
2022/09/28 00:17:11;;;;;;;4.20;3.33;;;7.30;66.00;;;;;;5055316;28;20017;-78
2022/09/28 00:19:38;;;;;;;5.80;3.80;;;7.30;74.90;;;;;;5055176;28;20028;-77
2022/09/28 00:22:05;;;;;;;5.18;3.60;;;7.30;83.20;;;;;;5054241;28;20068;-78
2022/09/28 00:24:30;;;;;;;5.13;3.80;;;7.30;90.40;;;;;;5036770;28;20025;-77
2022/09/28 00:26:59;;;;;;;5.55;3.50;;;7.30;93.80;;;;;;5054481;28;20513;-77
2022/09/28 00:29:33;;;;;;;5.63;3.90;;;7.30;97.50;;;;;;5054123;28;20506;-77
2022/09/28 00:32:02;;;;;;;7.25;3.63;;;7.30;99.90;;;;;;5043300;28;20025;-78
2022/09/28 00:34:34;;;;;;;5.15;3.75;;;7.40;99.90;;;;;;5052654;28;20371;-77
2022/09/28 00:37:01;;;;;;;6.60;3.00;;;7.30;99.90;;;;;;5054504;28;20017;-78
2022/09/28 00:39:30;;;;;;;5.40;3.40;;;7.40;99.90;;;;;;5044505;28;20033;-77
2022/09/28 00:41:56;;;;;;;5.30;3.13;;;7.40;99.90;;;;;;5056605;28;20041;-77
2022/09/28 00:44:25;;;;;;;4.60;2.88;;;7.30;99.90;;;;;;5070573;28;20025;-77
2022/09/28 00:47:18;;;;;;;4.50;2.67;;;7.20;99.90;;;;;;5056295;28;20025;-77
2022/09/28 00:49:53;;;;;;;5.55;2.58;;;7.20;99.90;;;;;;5058943;28;20025;-78
2022/09/28 00:52:34;;;;;;;6.03;2.72;;;7.20;99.90;;;;;;5074214;28;20353;-78
2022/09/28 00:55:03;;;;;;;7.00;2.65;;;7.00;99.90;;;;;;5074087;28;20165;-77
2022/09/28 00:57:30;;;;;;;3.83;2.90;;;7.10;99.90;;;;;;5073893;28;20096;-77
2022/09/28 00:59:56;;;;;;;3.42;2.35;;;7.00;99.90;;;;;;5073945;28;20032;-77
2022/09/28 01:02:22;;;;;;;4.07;2.47;;;7.00;99.90;;;;;;5073646;28;20363;-77
2022/09/28 01:04:48;;;;;;;3.97;2.55;;;6.90;99.90;;;;;;5073831;28;20522;-78
2022/09/28 01:07:17;;;;;;;7.25;2.72;;;6.90;99.90;;;;;;5073814;28;20023;-77
2022/09/28 01:09:44;;;;;;;4.63;2.80;;;7.00;99.90;;;;;;5073720;28;20016;-78
2022/09/28 01:12:10;;;;;;;3.35;2.42;;;7.00;99.90;;;;;;5074068;28;20024;-77
2022/09/28 01:14:38;;;;;;;5.78;3.10;;;7.00;99.90;;;;;;5073649;28;20024;-78
2022/09/28 01:17:12;;;;;;;6.63;2.60;;;6.90;99.90;;;;;;5063033;28;20025;-77
2022/09/28 01:19:47;;;;;;;5.20;2.90;;;6.90;99.90;;;;;;5072201;28;20153;-78
2022/09/28 01:22:30;;;;;;;4.97;2.90;;;6.80;99.90;;;;;;5073655;28;20079;-77
2022/09/28 01:25:19;;;;;;;5.22;2.90;;;6.80;99.90;;;;;;5073902;28;20047;-78
2022/09/28 01:27:53;;;;;;;6.35;3.13;;;6.80;99.90;;;;;;5073480;28;20356;-77
2022/09/28 01:30:20;;;;;;;4.97;2.95;;;6.70;99.90;;;;;;5073474;28;20478;-77
2022/09/28 01:32:53;;;;;;;4.82;2.85;;;6.70;99.90;;;;;;5072945;28;20471;-77
2022/09/28 01:35:46;;;;;;;4.07;2.95;;;6.70;99.90;;;;;;5073841;28;20070;-77
2022/09/28 01:38:23;;;;;;;3.92;2.90;;;6.70;99.90;;;;;;5073299;28;20375;-77
2022/09/28 01:40:50;;;;;;;4.07;3.13;;;6.70;99.90;;;;;;5073298;28;20033;-77
2022/09/28 01:43:21;;;;;;;3.50;2.35;;;6.70;99.90;;;;;;5073163;28;20128;-77
2022/09/28 01:45:53;;;;;;;5.18;2.72;;;6.80;99.90;;;;;;5066158;28;20136;-78
2022/09/28 01:48:36;;;;;;;5.85;2.50;;;6.70;99.90;;;;;;5063611;28;20091;-78
2022/09/28 01:51:09;;;;;;;3.90;2.72;;;6.70;99.90;;;;;;5071146;28;20094;-77
2022/09/28 01:53:46;;;;;;;3.35;2.45;;;6.70;99.90;;;;;;5073418;28;20020;-78
2022/09/28 01:56:27;;;;;;;5.15;3.03;;;6.70;99.90;;;;;;5073221;28;20032;-78
2022/09/28 01:59:05;;;;;;;3.90;2.58;;;6.80;99.90;;;;;;5073448;28;20016;-77
2022/09/28 02:01:37;;;;;;;4.10;2.58;;;6.70;99.90;;;;;;5073179;28;20043;-78
2022/09/28 02:04:26;;;;;;;4.53;2.60;;;6.70;99.90;;;;;;5059963;28;20035;-78
2022/09/28 02:07:06;;;;;;;3.67;2.40;;;6.70;99.90;;;;;;5073324;28;20074;-77
2022/09/28 02:09:37;;;;;;;4.38;2.63;;;6.80;99.90;;;;;;5073080;28;20071;-78
2022/09/28 02:12:12;;;;;;;3.25;2.58;;;6.80;99.90;;;;;;5073314;28;20068;-77
2022/09/28 02:14:41;;;;;;;8.68;2.83;;;6.80;99.90;;;;;;5073160;28;20110;-78
2022/09/28 02:17:08;;;;;;;3.53;2.20;;;6.80;99.90;;;;;;5072997;28;20016;-77
2022/09/28 02:19:35;;;;;;;3.90;2.60;;;6.70;99.90;;;;;;5056848;28;20052;-78
2022/09/28 02:22:09;;;;;;;5.95;2.50;;;6.70;99.90;;;;;;5072668;28;20039;-77
2022/09/28 02:24:44;;;;;;;5.20;2.50;;;6.70;99.90;;;;;;5059947;28;20050;-78
2022/09/28 02:27:27;;;;;;;3.03;1.98;;;6.70;99.90;;;;;;5072856;28;20451;-78
2022/09/28 02:29:52;;;;;;;3.38;2.30;;;6.60;99.90;;;;;;5072965;28;20071;-77
2022/09/28 02:32:19;;;;;;;2.50;1.98;;;6.50;99.90;;;;;;5072796;28;20454;-77
2022/09/28 02:34:45;;;;;;;3.50;2.20;;;6.50;99.90;;;;;;5073022;28;20048;-77
2022/09/28 02:37:11;;;;;;;3.65;2.13;;;6.40;99.90;;;;;;5072824;28;20044;-78
2022/09/28 02:39:37;;;;;;;3.22;2.78;;;6.30;99.90;;;;;;5072893;28;20028;-77
2022/09/28 02:42:10;;;;;;;2.47;1.80;;;6.40;99.90;;;;;;5063576;28;20082;-77
2022/09/28 02:44:36;;;;;;;2.90;2.10;;;6.40;99.90;;;;;;5052893;28;20100;-78
2022/09/28 02:47:22;;;;;;;5.63;2.25;;;6.40;99.90;;;;;;5056193;28;20478;-77
2022/09/28 02:50:09;;;;;;;3.53;1.80;;;6.30;99.90;;;;;;5056477;28;20074;-78
2022/09/28 02:52:44;;;;;;;3.88;2.40;;;6.30;99.90;;;;;;5056353;28;20037;-77
2022/09/28 02:55:18;;;;;;;6.47;2.08;;;6.40;99.90;;;;;;5056484;28;20524;-77
2022/09/28 02:58:19;;;;;;;3.30;2.10;;;6.20;99.90;;;;;;5045936;28;20068;-77
2022/09/28 03:01:00;;;;;;;2.10;1.70;;;6.20;99.90;;;;;;5045107;28;20487;-77
2022/09/28 03:03:57;;;;;;;2.58;2.00;;;6.10;99.90;;;;;;5038748;28;20033;-77
2022/09/28 03:06:58;;;;;;;3.90;1.80;;;6.20;99.90;;;;;;5022711;28;20514;-77
2022/09/28 03:09:27;;;;;;;3.58;2.10;;;6.10;99.90;;;;;;5038242;28;20041;-77
2022/09/28 03:11:57;;;;;;;3.63;2.22;;;6.20;99.90;;;;;;5056020;28;20021;-77
2022/09/28 03:14:23;;;;;;;3.03;1.98;;;6.10;99.90;;;;;;5056131;28;20359;-78
2022/09/28 03:16:48;;;;;;;2.80;1.98;;;6.10;99.90;;;;;;5045214;28;20029;-77
2022/09/28 03:19:18;;;;;;;4.07;2.03;;;6.10;99.90;;;;;;5036129;28;20021;-77
2022/09/28 03:21:44;;;;;;;6.03;2.50;;;6.10;99.90;;;;;;5047074;28;20036;-77
2022/09/28 03:24:10;;;;;;;3.92;2.13;;;6.20;99.90;;;;;;5051174;28;20030;-77
2022/09/28 03:26:37;;;;;;;3.08;2.13;;;6.30;99.90;;;;;;5047218;28;20040;-77
2022/09/28 03:29:02;;;;;;;6.15;2.40;;;6.50;99.90;;;;;;5055784;28;20017;-78
2022/09/28 03:31:28;;;;;;;5.10;2.05;;;6.50;99.90;;;;;;5055595;28;20108;-78
2022/09/28 03:33:54;;;;;;;2.88;2.00;;;6.60;99.90;;;;;;5055719;28;20032;-78
2022/09/28 03:36:20;;;;;;;4.53;2.00;;;6.60;99.90;;;;;;5055802;28;20024;-78
2022/09/28 03:38:45;;;;;;;3.08;1.98;;;6.70;99.90;;;;;;5055572;28;20024;-77
2022/09/28 03:41:11;;;;;;;2.83;2.08;;;6.60;99.90;;;;;;5055309;28;20143;-77
2022/09/28 03:43:37;;;;;;;4.47;2.00;;;6.50;99.90;;;;;;5050462;28;20029;-78
2022/09/28 03:46:03;;;;;;;2.63;1.98;;;6.50;99.90;;;;;;5035589;28;20457;-78
2022/09/28 03:48:31;;;;;;;2.75;1.73;;;6.50;99.90;;;;;;5035548;28;20018;-77
2022/09/28 03:50:58;;;;;;;3.70;1.73;;;6.40;99.90;;;;;;5030738;28;20048;-78
2022/09/28 03:53:24;;;;;;;2.05;1.80;;;6.40;99.90;;;;;;5041295;28;20033;-78
2022/09/28 03:55:52;;;;;;;3.35;1.90;;;6.50;99.90;;;;;;5055139;28;20025;-77
2022/09/28 03:58:19;;;;;;;1.90;1.50;;;6.50;99.90;;;;;;5055314;28;20075;-78
2022/09/28 04:00:45;;;;;;;8.07;1.80;;;6.50;99.90;;;;;;5055561;28;20104;-77
2022/09/28 04:03:10;;;;;;;2.00;1.25;;;6.40;99.90;;;;;;5054886;28;20108;-77
2022/09/28 04:05:36;;;;;;;2.15;1.63;;;6.40;99.90;;;;;;5055123;28;20061;-78
2022/09/28 04:08:02;;;;;;;3.50;1.60;;;6.40;99.90;;;;;;5053336;28;20017;-78
2022/09/28 04:10:27;;;;;;;3.33;1.40;;;6.40;99.90;;;;;;5046484;28;20029;-78
2022/09/28 04:12:54;;;;;;;2.10;1.33;;;6.40;99.90;;;;;;5055023;28;20083;-78
2022/09/28 04:15:20;;;;;;;3.03;1.40;;;6.40;99.90;;;;;;5054807;28;20082;-78
2022/09/28 04:17:47;;;;;;;6.13;2.80;;;6.50;99.90;;;;;;5054857;28;20402;-78
2022/09/28 04:20:13;;;;;;;5.38;2.05;;;6.50;99.90;;;;;;5054971;28;20021;-78
2022/09/28 04:22:38;;;;;;;3.72;1.65;;;6.50;99.90;;;;;;5049597;28;20026;-78
2022/09/28 04:25:04;;;;;;;3.80;1.88;;;6.50;99.90;;;;;;5034789;28;20026;-78
2022/09/28 04:30:14;;;;;;;3.35;1.33;;;6.60;99.90;;;;;;5054848;28;20433;-78
2022/09/28 04:32:40;;;;;;;2.80;1.27;;;6.70;99.90;;;;;;5047151;28;20471;-78
2022/09/28 04:35:06;;;;;;;2.83;1.50;;;6.70;99.90;;;;;;5048857;28;20024;-78
2022/09/28 04:37:32;;;;;;;5.32;1.80;;;6.70;99.90;;;;;;5054462;28;20017;-78
2022/09/28 04:39:58;;;;;;;2.20;1.30;;;6.80;99.90;;;;;;5053460;28;20017;-78
2022/09/28 04:42:23;;;;;;;3.85;1.27;;;6.70;99.90;;;;;;5047347;28;20373;-78
2022/09/28 04:44:49;;;;;;;3.10;1.30;;;6.70;99.90;;;;;;5034929;28;20099;-78
2022/09/28 04:47:15;;;;;;;2.45;1.33;;;6.70;99.90;;;;;;5054227;28;20517;-78
2022/09/28 04:49:40;;;;;;;2.55;1.63;;;6.80;99.90;;;;;;5054165;28;20021;-78
2022/09/28 04:52:07;;;;;;;1.88;1.55;;;6.80;99.90;;;;;;5054165;28;20021;-78
2022/09/28 04:54:32;;;;;;;2.88;1.33;;;6.90;99.90;;;;;;5054112;28;20348;-78
2022/09/28 04:56:58;;;;;;;2.80;1.35;;;7.00;99.90;;;;;;5054225;28;20458;-78
2022/09/28 04:59:24;;;;;;;3.95;1.40;;;7.10;99.90;;;;;;5053913;28;20033;-78
2022/09/28 05:01:50;;;;;;;5.65;1.50;;;7.20;99.90;;;;;;5054177;28;20021;-78
2022/09/28 05:04:16;;;;;;;3.65;1.40;;;7.20;99.90;;;;;;5053571;28;20047;-78
2022/09/28 05:06:41;;;;;;;5.55;1.60;;;7.30;99.90;;;;;;5053930;28;20096;-78
2022/09/28 05:09:08;;;;;;;2.88;1.40;;;7.30;99.90;;;;;;5035300;28;20551;-78
2022/09/28 05:11:33;;;;;;;5.38;1.80;;;7.30;99.90;;;;;;5054040;28;20051;-79
2022/09/28 05:14:00;;;;;;;7.03;2.00;;;7.40;99.90;;;;;;5053776;28;20033;-78
2022/09/28 05:16:26;;;;;;;7.88;1.77;;;7.50;99.90;;;;;;5054007;28;20119;-78
2022/09/28 05:18:55;;;;;;;4.70;1.90;;;7.50;99.90;;;;;;5053201;28;20021;-78
2022/09/28 05:21:24;;;;;;;6.05;2.38;;;7.60;99.90;;;;;;5053405;28;20021;-78
2022/09/28 05:23:50;;;;;;;8.63;2.47;;;7.60;99.90;;;;;;5053844;28;20457;-78
2022/09/28 05:26:15;;;;;;;3.85;2.03;;;7.60;99.90;;;;;;5053618;28;20368;-78
2022/09/28 05:28:41;;;;;;;3.75;1.95;;;7.70;99.90;;;;;;5053317;28;20460;-78
2022/09/28 05:31:07;;;;;;;4.68;2.13;;;7.60;99.90;;;;;;5053659;28;20464;-78
2022/09/28 05:33:33;;;;;;;4.53;2.60;;;7.50;99.90;;;;;;5053367;28;20036;-79
2022/09/28 05:35:59;;;;;;;4.63;3.08;;;7.40;99.90;;;;;;5053336;28;20551;-78
2022/09/28 05:38:25;;;;;;;4.72;4.32;;;7.20;99.90;;;;;;5053209;28;20483;-78
2022/09/28 05:40:51;;;;;;;8.48;6.47;;;7.10;99.90;;;;;;5053315;28;20025;-78
2022/09/28 05:43:16;;;;;;;8.55;7.35;;;7.00;99.90;;;;;;5040270;28;20047;-78
2022/09/28 05:45:42;;;;;;;6.03;5.28;;;7.00;99.90;;;;;;5035506;28;20025;-78
2022/09/28 05:48:07;;;;;;;6.05;4.80;;;7.00;99.90;;;;;;5035053;28;20021;-78
2022/09/28 05:50:33;;;;;;;6.97;3.60;;;7.00;99.90;;;;;;5050330;28;20036;-78
2022/09/28 05:53:05;;;;;;;3.70;2.70;;;7.00;99.90;;;;;;5032949;28;20032;-78
2022/09/28 05:55:31;;;;;;;5.70;2.60;;;7.10;99.90;;;;;;5051701;28;20059;-79
2022/09/28 05:57:58;;;;;;;4.38;2.83;;;7.10;99.90;;;;;;5053502;28;20033;-78
2022/09/28 06:00:25;;;;;;;3.83;2.83;;;7.20;99.90;;;;;;5052968;28;20107;-78
2022/09/28 06:02:59;;;;;;;6.05;3.33;;;7.30;99.90;;;;;;5052989;28;20036;-78
2022/09/28 06:05:25;;;;;;;6.60;3.17;;;7.30;99.90;;;;;;5033004;28;20064;-79
2022/09/28 06:07:53;;;;;;;5.05;2.72;;;7.30;99.90;;;;;;5038357;28;20057;-78
2022/09/28 06:10:19;;;;;;;3.67;2.35;;;7.30;99.90;;;;;;5025765;28;20033;-78
2022/09/28 06:12:46;;;;;;;2.85;2.15;;;7.30;99.90;;;;;;5035196;28;20025;-78
2022/09/28 06:15:13;;;;;;;7.88;2.90;;;7.30;99.90;;;;;;5053320;28;20013;-78
2022/09/28 06:17:39;;;;;;;6.40;2.22;;;7.30;99.90;;;;;;5053183;28;20017;-78
2022/09/28 06:20:05;;;;;;;6.35;1.90;;;7.30;99.90;;;;;;5055024;28;20028;-78
2022/09/28 06:22:30;;;;;;;2.92;1.60;;;7.30;99.90;;;;;;5039075;28;20037;-79
2022/09/28 06:24:56;;;;;;;2.10;1.40;;;7.30;99.90;;;;;;5056862;28;20025;-79
2022/09/28 06:27:21;;;;;;;2.95;1.63;;;7.30;99.90;;;;;;5056783;28;20033;-78
2022/09/28 06:29:47;;;;;;;3.80;1.70;;;7.20;99.90;;;;;;5056897;28;20367;-79
2022/09/28 06:32:13;;;;;;;3.30;1.52;;;7.30;99.90;;;;;;5056996;28;20036;-79
2022/09/28 06:34:40;;;;;;;5.10;2.00;;;7.30;99.90;;;;;;5056621;28;20021;-79
2022/09/28 06:37:06;;;;;;;2.40;1.90;;;7.40;99.90;;;;;;5056842;28;20017;-79
2022/09/28 06:39:32;;;;;;;3.70;1.67;;;7.40;99.90;;;;;;5056526;28;20025;-79
2022/09/28 06:42:02;;;;;;;4.85;1.77;;;7.50;99.90;;;;;;5044098;28;20049;-78
2022/09/28 06:44:28;;;;;;;3.80;1.73;;;7.60;99.90;;;;;;5049623;28;20031;-77
2022/09/28 06:46:56;;;;;;;4.53;1.60;;;7.70;99.90;;;;;;5056420;28;20434;-77
2022/09/28 06:49:22;;;;;;;3.80;2.10;;;7.70;99.90;;;;;;5056225;28;20013;-79
2022/09/28 06:51:48;;;;;;;4.10;1.90;;;7.80;99.90;;;;;;5056200;28;20464;-78
2022/09/28 06:54:13;;;;;;;3.22;1.90;;;8.00;99.90;;;;;;5055505;28;20032;-77
2022/09/28 06:56:39;;;;;;;6.45;2.50;;;8.10;99.90;;;;;;5056136;28;20032;-77
2022/09/28 06:59:05;;;;;;;9.07;3.45;;;8.40;99.90;;;;;;5056112;28;20052;-77
2022/09/28 07:01:30;;;;;;;5.97;2.60;;;14.00;99.90;;;;;;5055982;28;20021;-77
2022/09/28 07:03:56;;;;;;;4.55;2.05;;;18.20;99.90;;;;;;5056153;28;20036;-78
2022/09/28 07:06:25;;;;;;;3.20;1.95;;;21.00;99.90;;;;;;5055919;28;20017;-78
2022/09/28 07:08:51;;;;;;;4.65;2.10;;;23.20;99.90;;;;;;5056098;28;20021;-77
2022/09/28 07:11:19;;;;;;;9.23;3.50;;;25.30;62.80;;;;;;5042413;28;20051;-78
2022/09/28 07:13:44;;;;;;;3.60;1.42;;;27.50;23.00;;;;;;5036457;28;20029;-78
2022/09/28 07:16:11;;;;;;;2.25;1.58;;;29.10;1.00;;;;;;5035884;28;20021;-78
2022/09/28 07:18:37;;;;;;;1.63;1.10;;;29.90;1.00;;;;;;5036114;28;20412;-78
2022/09/28 07:21:06;;;;;;;5.55;1.15;;;31.60;1.00;;;;;;5052396;28;20460;-78
2022/09/28 07:23:32;;;;;;;1.10;0.75;;;32.90;1.00;;;;;;5056061;28;20116;-78
2022/09/28 07:26:01;;;;;;;2.67;0.80;;;34.00;1.00;;;;;;5055722;28;20044;-78
2022/09/28 07:28:27;;;;;;;0.80;0.57;;;35.50;1.00;;;;;;5055509;28;20033;-78
2022/09/28 07:30:55;;;;;;;2.10;0.60;;;35.90;1.00;;;;;;5055004;28;20033;-78
2022/09/28 07:33:22;;;;;;;2.03;0.60;;;36.90;1.00;;;;;;5054099;28;20467;-78
2022/09/28 07:35:51;;;;;;;2.67;0.60;;;38.20;1.00;;;;;;5055759;28;20017;-78
2022/09/28 07:38:17;;;;;;;2.20;0.50;;;37.70;1.00;;;;;;5055512;28;20021;-78
2022/09/28 07:43:27;;;;;;;0.47;0.30;;;38.30;1.00;;;;;;5043296;28;20086;-78
2022/09/28 07:45:53;;;;;;;1.80;0.60;;;39.70;1.00;;;;;;5055278;28;20413;-78
2022/09/28 07:48:20;;;;;;;1.38;0.70;;;39.40;1.00;;;;;;5055319;28;20021;-78
2022/09/28 07:50:51;;;;;;;2.58;0.50;;;39.90;1.00;;;;;;5055143;28;20036;-79
2022/09/28 07:53:18;;;;;;;1.08;0.30;;;39.00;1.00;;;;;;5041900;28;20437;-78
2022/09/28 07:56:08;;;;;;;1.95;0.70;;;38.80;1.00;;;;;;5052645;28;20096;-78
2022/09/28 07:58:36;;;;;;;1.08;0.40;;;39.00;1.00;;;;;;5050842;28;20037;-78
2022/09/28 08:01:07;;;;;;;1.30;0.60;;;38.30;1.00;;;;;;5055041;28;20352;-78
2022/09/28 08:03:34;;;;;;;1.13;0.60;;;39.50;1.00;;;;;;5037046;28;20140;-78
2022/09/28 08:06:01;;;;;;;1.42;0.50;;;40.40;1.00;;;;;;5055056;28;20021;-78
2022/09/28 08:08:27;;;;;;;0.73;0.30;;;40.10;1.00;;;;;;5054980;28;20036;-80
2022/09/28 08:10:52;;;;;;;1.30;0.25;;;39.70;1.00;;;;;;5052187;28;20009;-80
2022/09/28 08:13:19;;;;;;;0.45;0.30;;;40.40;1.00;;;;;;5041825;28;20032;-80
2022/09/28 08:15:47;;;;;;;1.88;0.30;;;40.70;1.00;;;;;;5039215;28;20025;-80
2022/09/28 08:18:13;;;;;;;0.82;0.40;;;40.10;1.00;;;;;;5053614;28;20049;-77
2022/09/28 08:23:23;;;;;;;0.55;0.30;;;40.60;1.00;;;;;;5054482;28;20079;-77
2022/09/28 08:25:51;;;;;;;1.08;0.30;;;40.60;1.00;;;;;;5054505;28;20048;-77
2022/09/28 08:28:17;;;;;;;0.82;0.20;;;40.10;1.00;;;;;;5042069;28;20060;-78
2022/09/28 08:30:47;;;;;;;2.53;0.70;;;40.70;1.00;;;;;;5040114;28;20035;-78
2022/09/28 08:33:14;;;;;;;1.52;0.40;;;39.50;1.00;;;;;;5035614;28;20074;-78
2022/09/28 08:35:40;;;;;;;1.75;0.30;;;40.80;1.00;;;;;;5053819;28;20029;-78
2022/09/28 08:38:07;;;;;;;1.90;0.38;;;41.20;1.00;;;;;;5054169;28;20028;-77
2022/09/28 08:40:41;;;;;;;0.60;0.28;;;40.30;1.00;;;;;;5053937;28;20024;-77
2022/09/28 08:43:24;;;;;;;0.82;0.20;;;39.60;1.00;;;;;;5070091;28;20041;-77
2022/09/28 08:45:51;;;;;;;1.48;0.20;;;40.00;1.00;;;;;;5074493;28;20074;-77
2022/09/28 08:48:43;;;;;;;1.15;0.30;;;40.00;1.00;;;;;;5074103;28;20073;-77
2022/09/28 08:51:17;;;;;;;0.85;0.22;;;40.80;1.00;;;;;;5074209;28;20021;-78
2022/09/28 08:54:23;;;;;;;2.75;0.32;;;40.80;1.00;;;;;;5074070;28;20103;-77
2022/09/28 08:56:54;;;;;;;2.65;0.50;;;37.30;1.00;;;;;;5074041;28;20090;-77
2022/09/28 08:59:25;;;;;;;0.73;0.20;;;38.20;1.00;;;;;;5074014;28;20434;-77
2022/09/28 09:01:59;;;;;;;0.77;0.30;;;38.80;1.00;;;;;;5073827;28;20032;-77
2022/09/28 09:04:25;;;;;;;0.93;0.20;;;39.70;1.00;;;;;;5073686;28;20033;-77
2022/09/28 09:07:14;;;;;;;1.42;0.30;;;39.60;1.00;;;;;;5073664;28;20036;-77
2022/09/28 09:10:13;;;;;;;1.13;0.23;;;40.50;1.00;;;;;;5073960;28;20024;-77
2022/09/28 09:12:39;;;;;;;0.50;0.10;;;41.20;1.00;;;;;;5073916;28;20262;-77
2022/09/28 09:15:23;;;;;;;0.70;0.10;;;39.10;1.00;;;;;;5073809;28;20254;-77
2022/09/28 09:18:13;;;;;;;0.43;0.13;;;34.00;1.00;;;;;;5054332;28;20025;-77
2022/09/28 09:20:50;;;;;;;0.40;0.10;;;32.90;1.00;;;;;;5056395;28;20027;-77
2022/09/28 09:23:23;;;;;;;1.63;0.20;;;37.80;1.00;;;;;;5073543;28;20078;-77
2022/09/28 09:25:56;;;;;;;0.28;0.15;;;39.50;1.00;;;;;;5073621;28;20031;-76
2022/09/28 09:28:34;;;;;;;0.52;0.20;;;39.30;1.00;;;;;;5072286;28;20021;-77
2022/09/28 09:31:25;;;;;;;0.20;0.20;;;36.60;1.00;;;;;;5058774;28;20079;-77
2022/09/28 09:34:19;;;;;;;0.17;0.10;;;36.10;1.00;;;;;;5053691;28;20067;-78
2022/09/28 09:36:46;;;;;;;0.35;0.28;;;36.40;1.00;;;;;;5052616;28;20040;-78
2022/09/28 09:39:54;;;;;;;4.10;0.30;;;34.40;1.00;;;;;;5061111;28;20013;-78
2022/09/28 09:42:41;;;;;;;1.05;0.10;;;31.00;1.00;;;;;;5049468;28;20099;-78
2022/09/28 09:45:41;;;;;;;0.38;0.20;;;27.50;1.00;;;;;;5053601;28;20028;-78
2022/09/28 09:48:16;;;;;;;0.40;0.10;;;25.00;1.00;;;;;;5045091;28;20078;-78
2022/09/28 09:50:53;;;;;;;1.65;0.17;;;23.50;1.00;;;;;;5037867;28;20021;-78
2022/09/28 09:53:37;;;;;;;0.20;0.10;;;22.50;1.00;;;;;;5050997;28;20467;-78
2022/09/28 09:56:16;;;;;;;1.10;0.10;;;21.50;1.00;;;;;;5043498;28;20048;-78
2022/09/28 09:58:46;;;;;;;0.88;0.10;;;20.60;1.00;;;;;;5033470;28;20451;-78
2022/09/28 10:01:16;;;;;;;0.47;0.10;;;20.10;1.00;;;;;;5035539;28;20037;-78
2022/09/28 10:03:47;;;;;;;1.95;0.20;;;19.50;1.00;;;;;;5053104;28;20506;-78
2022/09/28 10:06:26;;;;;;;0.13;0.10;;;24.10;1.00;;;;;;5053776;28;20026;-78
2022/09/28 10:09:08;;;;;;;0.73;0.20;;;29.00;1.00;;;;;;5053608;28;20048;-79
2022/09/28 10:11:39;;;;;;;0.77;0.20;;;27.70;1.00;;;;;;5040788;28;20112;-78
2022/09/28 10:14:07;;;;;;;1.40;0.20;;;23.40;1.00;;;;;;5053364;28;20501;-78
2022/09/28 10:16:33;;;;;;;0.98;0.20;;;21.10;1.00;;;;;;5053136;28;20360;-78
2022/09/28 10:18:59;;;;;;;2.30;0.30;;;19.90;1.00;;;;;;5053233;28;20402;-78
2022/09/28 10:21:26;;;;;;;0.93;0.30;;;19.30;1.00;;;;;;5052865;28;20845;-78
2022/09/28 10:23:57;;;;;;;0.65;0.10;;;19.00;1.00;;;;;;5052778;28;20021;-78
2022/09/28 10:26:40;;;;;;;0.22;0.10;;;18.60;1.00;;;;;;5053043;28;20403;-78
2022/09/28 10:29:16;;;;;;;0.95;0.10;;;19.80;1.00;;;;;;5046168;28;20159;-78
2022/09/28 10:31:47;;;;;;;2.15;0.20;;;20.70;1.00;;;;;;5048617;28;20013;-78
2022/09/28 10:34:16;;;;;;;0.85;0.22;;;21.20;1.00;;;;;;5032911;28;20041;-78
2022/09/28 10:37:02;;;;;;;1.30;0.20;;;20.60;1.00;;;;;;5034833;28;20025;-78
2022/09/28 10:39:35;;;;;;;1.45;0.10;;;20.10;1.00;;;;;;5052972;28;20044;-78
2022/09/28 10:42:07;;;;;;;1.55;0.20;;;19.50;1.00;;;;;;5052657;28;20072;-78
2022/09/28 10:44:41;;;;;;;0.38;0.20;;;19.40;1.00;;;;;;5042309;28;20029;-78
2022/09/28 10:47:13;;;;;;;0.38;0.15;;;18.90;1.00;;;;;;5051056;28;20037;-78
2022/09/28 10:49:47;;;;;;;0.50;0.10;;;18.80;1.00;;;;;;5052536;28;20060;-78
2022/09/28 10:52:30;;;;;;;2.08;0.20;;;18.30;1.00;;;;;;5052932;28;20043;-78
2022/09/28 10:54:55;;;;;;;2.90;0.20;;;18.50;1.00;;;;;;5033194;28;20078;-78
2022/09/28 10:57:33;;;;;;;1.27;0.10;;;18.70;1.00;;;;;;5052770;28;20104;-78
2022/09/28 10:59:59;;;;;;;0.30;0.10;;;18.80;1.00;;;;;;5032905;28;20559;-78
2022/09/28 11:02:32;;;;;;;0.95;0.10;;;18.80;1.00;;;;;;5032667;28;20017;-78
2022/09/28 11:05:01;;;;;;;0.40;0.10;;;18.00;1.00;;;;;;5034646;28;20033;-78
2022/09/28 11:07:30;;;;;;;0.30;0.20;;;17.50;1.00;;;;;;5041526;28;20021;-78
2022/09/28 11:09:57;;;;;;;0.82;0.15;;;17.30;1.00;;;;;;5056028;28;20023;-78
2022/09/28 11:12:36;;;;;;;0.75;0.10;;;17.40;1.00;;;;;;5056037;28;20029;-78
2022/09/28 11:15:06;;;;;;;1.20;0.20;;;18.20;1.00;;;;;;5056057;28;20025;-78
2022/09/28 11:17:40;;;;;;;0.75;0.20;;;18.40;1.00;;;;;;5055910;28;20262;-78
2022/09/28 11:20:24;;;;;;;3.47;0.40;;;18.30;1.00;;;;;;5056003;28;20025;-78
2022/09/28 11:23:15;;;;;;;0.47;0.10;;;18.00;1.00;;;;;;5035852;28;20022;-78
2022/09/28 11:25:41;;;;;;;2.08;0.30;;;17.60;1.00;;;;;;5055093;28;20020;-77
2022/09/28 11:28:30;;;;;;;0.50;0.10;;;17.40;1.00;;;;;;5055774;28;20364;-78
2022/09/28 11:30:56;;;;;;;0.30;0.20;;;17.30;1.00;;;;;;5036017;28;20432;-77
2022/09/28 11:33:44;;;;;;;2.60;0.35;;;17.40;1.00;;;;;;5050223;28;21508;-78
2022/09/28 11:36:12;;;;;;;1.95;0.10;;;18.00;1.00;;;;;;5055460;28;20039;-78
2022/09/28 11:38:52;;;;;;;2.25;0.20;;;18.90;1.00;;;;;;5055526;28;20044;-78
2022/09/28 11:41:21;;;;;;;0.15;0.10;;;19.10;1.00;;;;;;5057298;28;20029;-77
2022/09/28 11:44:15;;;;;;;0.10;0.10;;;18.90;1.00;;;;;;5055249;28;20077;-77
2022/09/28 11:47:04;;;;;;;1.15;0.10;;;18.70;1.00;;;;;;5055266;28;20029;-78
2022/09/28 11:49:44;;;;;;;0.08;0.08;;;18.50;1.00;;;;;;5051627;28;20100;-77
2022/09/28 11:52:17;;;;;;;3.65;0.20;;;17.90;1.00;;;;;;5044516;28;20056;-78
2022/09/28 11:54:52;;;;;;;0.93;0.20;;;17.00;1.00;;;;;;5035202;28;20029;-77
2022/09/28 11:57:24;;;;;;;0.75;0.22;;;16.40;1.00;;;;;;5024000;28;20057;-77
2022/09/28 12:00:00;;;;;;;0.55;0.15;;;15.90;1.00;;;;;;5037414;28;20033;-77
2022/09/28 12:02:35;;;;;;;0.10;0.10;;;15.50;1.00;;;;;;5035311;28;20361;-77
2022/09/28 12:05:07;;;;;;;2.25;0.30;;;15.40;1.00;;;;;;5040481;28;20461;-78
2022/09/28 12:08:02;;;;;;;6.25;0.60;;;15.20;93.00;;;;;;5054919;28;20418;-78
2022/09/28 12:10:54;;;;;;;0.95;0.20;;;15.10;88.80;;;;;;5027183;28;20391;-79
2022/09/28 12:13:26;;;;;;;0.40;0.20;;;14.80;74.70;;;;;;5035805;28;20025;-80
2022/09/28 12:16:13;;;;;;;9.32;0.60;;;14.80;85.50;;;;;;5051672;28;20024;-79
2022/09/28 12:19:03;;;;;;;1.10;0.50;;;14.60;99.90;;;;;;5054718;28;20029;-78
2022/09/28 12:21:42;;;;;;;1.85;0.40;;;14.60;99.90;;;;;;5034790;28;20060;-78
2022/09/28 12:24:18;;;;;;;3.72;0.55;;;14.60;99.90;;;;;;5047558;28;20033;-79
2022/09/28 12:27:13;;;;;;;2.28;0.50;;;14.40;99.90;;;;;;5054683;28;20033;-78
2022/09/28 12:29:46;;;;;;;3.55;0.55;;;14.70;99.90;;;;;;5006844;28;20121;-79
2022/09/28 12:32:50;;;;;;;3.15;0.30;;;14.90;99.90;;;;;;5034762;28;20029;-79
2022/09/28 12:35:41;;;;;;;1.15;0.30;;;14.80;99.90;;;;;;5030999;28;20092;-79
2022/09/28 12:38:39;;;;;;;4.03;0.45;;;15.10;98.90;;;;;;5041993;28;20112;-79
2022/09/28 12:41:15;;;;;;;1.00;0.28;;;15.10;88.00;;;;;;4995146;28;20503;-78
2022/09/28 12:43:53;;;;;;;0.20;0.20;;;15.00;79.10;;;;;;5056428;28;20064;-78
2022/09/28 12:46:45;;;;;;;0.25;0.20;;;14.80;70.20;;;;;;5048190;28;20453;-78
2022/09/28 12:49:55;;;;;;;0.20;0.20;;;14.70;71.30;;;;;;5054493;28;20049;-79
2022/09/28 12:52:36;;;;;;;1.00;0.20;;;14.50;60.30;;;;;;5031073;28;20099;-78
2022/09/28 12:55:20;;;;;;;1.33;0.22;;;14.40;60.00;;;;;;5048678;28;20033;-77
2022/09/28 12:58:15;;;;;;;0.63;0.20;;;14.30;59.60;;;;;;5042983;28;20060;-77
2022/09/28 13:01:08;;;;;;;0.57;0.25;;;14.20;57.20;;;;;;5042053;28;20035;-77
2022/09/28 13:03:57;;;;;;;0.30;0.10;;;14.10;57.40;;;;;;5048659;28;20476;-77
2022/09/28 13:06:46;;;;;;;1.67;0.30;;;14.00;56.30;;;;;;5049311;28;20073;-77
2022/09/28 13:09:22;;;;;;;1.13;0.20;;;14.40;62.20;;;;;;5042940;28;20760;-77
2022/09/28 13:12:18;;;;;;;0.95;0.20;;;15.00;59.60;;;;;;5044617;28;20360;-77
2022/09/28 13:15:26;;;;;;;0.40;0.20;;;15.50;58.80;;;;;;5040856;28;20044;-77
2022/09/28 13:18:06;;;;;;;0.32;0.30;;;16.40;56.10;;;;;;5053983;28;20074;-77
2022/09/28 13:20:44;;;;;;;1.13;0.30;;;16.70;45.10;;;;;;5053807;28;20422;-77
2022/09/28 13:23:14;;;;;;;1.02;0.20;;;17.00;41.50;;;;;;5035627;28;20049;-79
2022/09/28 13:25:46;;;;;;;0.33;0.20;;;17.10;43.10;;;;;;5053792;28;20028;-78
2022/09/28 13:28:14;;;;;;;1.23;0.20;;;16.70;30.30;;;;;;5053684;28;20463;-78
2022/09/28 13:30:42;;;;;;;0.20;0.20;;;16.50;39.90;;;;;;5047884;28;20096;-79